Braunton, United Kingdom
Current Conditions -  °F | °C
As of 10:50 AM on Monday 20 Oct 2014 (Local Time) from EGDX Reporting Station
Rain Showers Rain Showers  
Wind Chill: 14°   Ceiling: 4500
Heat Index: 14°   Visibility: 6mi
Dew Point: 11°   Wind: 17mph
Humidity: 82%   Direction: 260°W
Pressure: 30"   Gusts: NA
Location:  51.11°N, 4.16°W
Report Text: EGDX 200950Z 26015KT 9999 VCSH SCT015 BKN045 14/11 Q1016 WHT
Loading
Personal Weather Stations






























Interactive Weather Map
Tropical Storm Tracking
New forecast layout! Learn more

10-Day Weather Forecast

Advertisements
Track Severe Weather on mobile